»·PEaware :: AAL1097 KELP-KDFW

AAL1097 :: KELP-KDFW

FLIGHT INFORMATION

Flight Status: Arrived
Operator:
American Airlines
More flights by this operator :: More flights under this callsign
Pilot: Adam A. (5112)
Aircraft: MCDONNELL-DOUGLAS MD-88
(MD88)
More flights by this aircraft type
Origin: KELP El Paso Intl
United States
Destination: KDFW Dallas-Ft Worth Intl
United States
More flights between these airports :: More routes between these airports
Route: TDOWN2 SFL INK GEEKY BOOVE3
File this flight plan on PilotEdge
Remarks:
Altitude:
(Current/Filed)
25,000ft
Speed:
(Current/Filed)
410kts
Departed: 07-Mar-16 06:01 PM
Arrived: 07-Mar-16 07:32 PM
Distance/Time
Traveled:
477nm/1:31
Distance/Time
To Go:
Arrived

Flight Plot

Page will automatically refresh every two minutes.


Map Options




Map Legend


Flown Route
Filed Route
Departure Airport
Arrival Airport
Navaid (VOR, NDB)
Fix

Horizontal Profiles

Position Reports

Time Latitude Longitude Heading Altitude Ground
Speed
07-Mar-16 17:18 31.799803 -106.392511 345 3964ft 0kts
07-Mar-16 17:19 31.799803 -106.392511 345 3964ft 0kts
07-Mar-16 17:20 31.799803 -106.392511 345 3964ft 0kts
07-Mar-16 17:21 31.799803 -106.392511 345 3964ft 0kts
07-Mar-16 17:22 31.799803 -106.392511 345 3964ft 0kts
07-Mar-16 17:23 31.799803 -106.392511 345 3964ft 0kts
07-Mar-16 17:24 31.799803 -106.392511 345 3964ft 0kts
07-Mar-16 17:25 31.799803 -106.392511 345 3964ft 0kts
07-Mar-16 17:26 31.799803 -106.392511 345 3964ft 0kts
07-Mar-16 17:27 31.799803 -106.392511 345 3964ft 0kts
07-Mar-16 17:28 31.799803 -106.392511 345 3964ft 0kts
07-Mar-16 17:29 31.799803 -106.392511 345 3964ft 0kts
07-Mar-16 17:30 31.799803 -106.392511 345 3964ft 0kts
07-Mar-16 17:31 31.799803 -106.392511 345 3964ft 0kts
07-Mar-16 17:32 31.799803 -106.392511 345 3964ft 0kts
07-Mar-16 17:33 31.799803 -106.392511 345 3964ft 0kts
07-Mar-16 17:34 31.799803 -106.392511 345 3964ft 0kts
07-Mar-16 17:35 31.799803 -106.392511 345 3964ft 0kts
07-Mar-16 17:36 31.799803 -106.392511 345 3964ft 0kts
07-Mar-16 17:37 31.799803 -106.392511 345 3964ft 0kts
07-Mar-16 17:38 31.799803 -106.392511 345 3964ft 0kts
07-Mar-16 17:39 31.799803 -106.392511 345 3964ft 0kts
07-Mar-16 17:40 31.799803 -106.392511 345 3964ft 0kts
07-Mar-16 17:41 31.799803 -106.392511 345 3964ft 0kts
07-Mar-16 17:42 31.799803 -106.392511 345 3964ft 0kts
07-Mar-16 17:43 31.799803 -106.392511 345 3964ft 0kts
07-Mar-16 17:44 31.799803 -106.392511 345 3964ft 0kts
07-Mar-16 17:45 31.799803 -106.392511 345 3964ft 0kts
07-Mar-16 17:46 31.799803 -106.392511 345 3964ft 0kts
07-Mar-16 17:47 31.799803 -106.392511 345 3964ft 0kts
07-Mar-16 17:48 31.800898 -106.391775 17 3964ft 18kts
07-Mar-16 17:49 31.805678 -106.388204 44 3964ft 22kts
07-Mar-16 17:50 31.810510 -106.382074 49 3964ft 28kts
07-Mar-16 17:51 31.814862 -106.375998 49 3964ft 25kts
07-Mar-16 17:52 31.819474 -106.369538 49 3964ft 29kts
07-Mar-16 17:53 31.822417 -106.370480 260 3964ft 22kts
07-Mar-16 17:54 31.805007 -106.392658 200 5138ft 142kts
07-Mar-16 17:55 31.762314 -106.358048 133 7290ft 236kts
07-Mar-16 17:56 31.718970 -106.299662 112 9546ft 276kts
07-Mar-16 17:57 31.722967 -106.211167 67 10930ft 332kts
07-Mar-16 17:58 31.784696 -106.133329 44 13814ft 342kts
07-Mar-16 17:59 31.793875 -106.015135 104 14524ft 399kts
07-Mar-16 18:00 31.787146 -105.900501 93 16904ft 406kts
07-Mar-16 18:01 31.785562 -105.775281 93 18827ft 419kts
07-Mar-16 18:02 31.781355 -105.645059 97 20633ft 431kts
07-Mar-16 18:03 31.773568 -105.511352 97 22331ft 444kts
07-Mar-16 18:04 31.765373 -105.371476 97 24175ft 449kts
07-Mar-16 18:05 31.756852 -105.229224 97 24769ft 448kts
07-Mar-16 18:06 31.749040 -105.083470 89 24745ft 453kts
07-Mar-16 18:07 31.759325 -104.936707 87 24756ft 454kts
07-Mar-16 18:08 31.770476 -104.790507 88 24748ft 453kts
07-Mar-16 18:09 31.781253 -104.643411 89 24749ft 452kts
07-Mar-16 18:10 31.791783 -104.496646 89 24750ft 452kts
07-Mar-16 18:11 31.802144 -104.350210 89 24752ft 452kts
07-Mar-16 18:12 31.812373 -104.203220 89 24753ft 452kts
07-Mar-16 18:13 31.822381 -104.056979 89 24754ft 452kts
07-Mar-16 18:14 31.832267 -103.910035 89 24755ft 452kts
07-Mar-16 18:15 31.842219 -103.764185 90 24744ft 451kts
07-Mar-16 18:16 31.851635 -103.617699 90 24741ft 451kts
07-Mar-16 18:17 31.860856 -103.471362 90 24742ft 451kts
07-Mar-16 18:18 31.869901 -103.325147 90 24743ft 451kts
07-Mar-16 18:19 31.883517 -103.178288 84 24745ft 454kts
07-Mar-16 18:20 31.902803 -103.032943 84 24746ft 454kts
07-Mar-16 18:21 31.922161 -102.886274 85 24750ft 454kts
07-Mar-16 18:22 31.938822 -102.761034 85 24759ft 454kts
07-Mar-16 18:23 31.957885 -102.614081 85 24769ft 454kts
07-Mar-16 18:24 31.976752 -102.467195 85 24771ft 454kts
07-Mar-16 18:25 31.995441 -102.320312 85 24767ft 453kts
07-Mar-16 18:26 32.013931 -102.173624 85 24769ft 453kts
07-Mar-16 18:27 32.032129 -102.027851 85 24781ft 452kts
07-Mar-16 18:28 32.050181 -101.882130 85 24780ft 451kts
07-Mar-16 18:29 32.068304 -101.736356 86 24778ft 449kts
07-Mar-16 18:30 32.085929 -101.591159 86 24780ft 448kts
07-Mar-16 18:31 32.103438 -101.445255 86 24781ft 448kts
07-Mar-16 18:32 32.120719 -101.299831 86 24783ft 448kts
07-Mar-16 18:33 32.137873 -101.154130 86 24784ft 448kts
07-Mar-16 18:34 32.153240 -101.022300 86 24785ft 448kts
07-Mar-16 18:35 32.167583 -100.898136 87 24786ft 449kts
07-Mar-16 18:36 32.184504 -100.752877 87 24780ft 449kts
07-Mar-16 18:37 32.201015 -100.607151 87 24781ft 449kts
07-Mar-16 18:38 32.214630 -100.485759 87 24782ft 449kts
07-Mar-16 18:39 32.230809 -100.340078 87 24783ft 449kts
07-Mar-16 18:40 32.246838 -100.194206 87 24769ft 448kts
07-Mar-16 18:41 32.262586 -100.049320 87 24750ft 447kts
07-Mar-16 18:42 32.278181 -99.904256 87 24751ft 447kts
07-Mar-16 18:43 32.285493 -99.776433 91 24747ft 444kts
07-Mar-16 18:44 32.293097 -99.631466 91 24759ft 443kts
07-Mar-16 18:45 32.300620 -99.486003 91 24766ft 443kts
07-Mar-16 18:46 32.307970 -99.340660 91 24769ft 443kts
07-Mar-16 18:47 32.313999 -99.218918 91 24773ft 442kts
07-Mar-16 18:48 32.321005 -99.074309 91 24777ft 441kts
07-Mar-16 18:49 32.327610 -98.931151 91 24778ft 441kts
07-Mar-16 18:50 32.334361 -98.791135 92 24781ft 440kts
07-Mar-16 18:51 32.340850 -98.649557 92 24801ft 440kts
07-Mar-16 18:52 32.346458 -98.521674 92 24807ft 440kts
07-Mar-16 18:53 32.352678 -98.378692 92 24812ft 440kts
07-Mar-16 18:54 32.358685 -98.234883 92 24650ft 444kts
07-Mar-16 18:55 32.364534 -98.092054 92 24011ft 441kts
07-Mar-16 18:56 32.370140 -97.951739 92 22577ft 430kts
07-Mar-16 18:57 32.375504 -97.819889 93 20773ft 416kts
07-Mar-16 18:58 32.380561 -97.687610 94 18776ft 402kts
07-Mar-16 18:59 32.427149 -97.575849 48 16254ft 422kts
07-Mar-16 19:00 32.505658 -97.484651 46 15345ft 392kts
07-Mar-16 19:01 32.580949 -97.399316 38 13893ft 382kts
07-Mar-16 19:02 32.655392 -97.379213 3 12908ft 353kts
07-Mar-16 19:03 32.734022 -97.379828 353 12415ft 304kts
07-Mar-16 19:04 32.816148 -97.382607 353 11972ft 301kts
07-Mar-16 19:05 32.900479 -97.386153 353 11225ft 325kts
07-Mar-16 19:06 32.988803 -97.399995 336 10502ft 336kts
07-Mar-16 19:07 33.068740 -97.433724 337 9984ft 337kts
07-Mar-16 19:08 33.147672 -97.466294 336 9965ft 289kts
07-Mar-16 19:09 33.221704 -97.496077 336 9969ft 286kts
07-Mar-16 19:10 33.293156 -97.524129 339 9952ft 282kts
07-Mar-16 19:11 33.361165 -97.491339 51 9850ft 309kts
07-Mar-16 19:12 33.363477 -97.414670 157 9220ft 245kts
07-Mar-16 19:13 33.313172 -97.373119 137 8443ft 244kts
07-Mar-16 19:14 33.274779 -97.310712 128 7605ft 240kts
07-Mar-16 19:15 33.240948 -97.247091 127 6763ft 229kts
07-Mar-16 19:16 33.209725 -97.187107 125 6000ft 219kts
07-Mar-16 19:17 33.169536 -97.143651 147 4949ft 196kts
07-Mar-16 19:18 33.123791 -97.110151 145 3765ft 200kts
07-Mar-16 19:19 33.078026 -97.076994 144 3031ft 176kts
07-Mar-16 19:20 33.036374 -97.050315 176 2966ft 177kts
07-Mar-16 19:21 32.995227 -97.050409 174 2204ft 131kts
07-Mar-16 19:22 32.961059 -97.050542 174 1520ft 123kts
07-Mar-16 19:23 32.927793 -97.050867 174 863ft 116kts
07-Mar-16 19:24 32.903155 -97.050822 182 612ft 45kts
07-Mar-16 19:25 32.894871 -97.049511 150 612ft 16kts
07-Mar-16 19:26 32.896788 -97.047124 358 612ft 20kts
07-Mar-16 19:27 32.904780 -97.047594 1 612ft 23kts
07-Mar-16 19:28 32.906011 -97.045558 109 612ft 4kts
07-Mar-16 19:29 32.905921 -97.045372 124 612ft 0kts
07-Mar-16 19:30 32.905921 -97.045372 124 612ft 0kts

Navigation Log

Ident Type
1. KELP Airport
2. SFL Navaid
3. INK Navaid
4. KDFW Airport